Time;durP1;ratioP1;P1;durP2;ratioP2;P2;SDS_P1;SDS_P2;PMS_P1;PMS_P2;Temp;Humidity;BMP_temperature;BMP_pressure;BME280_temperature;BME280_humidity;BME280_pressure;Samples;Min_cycle;Max_cycle;Signal;HPM_P1;HPM_P2
2023/12/28 00:01:50;;;;;;;16.30;15.70;;;22.70;53.10;;;;;;5023349;28;20900;-68
2023/12/28 00:04:18;;;;;;;16.77;15.97;;;22.70;53.20;;;;;;5022773;28;20547;-68
2023/12/28 00:06:45;;;;;;;17.20;16.50;;;22.70;53.20;;;;;;5019942;28;20477;-68
2023/12/28 00:09:11;;;;;;;16.73;16.10;;;22.70;53.30;;;;;;5019927;28;20474;-68
2023/12/28 00:11:38;;;;;;;17.13;16.43;;;22.60;53.30;;;;;;5021957;28;20469;-67
2023/12/28 00:14:05;;;;;;;17.30;16.50;;;22.60;53.30;;;;;;5030274;28;20707;-67
2023/12/28 00:16:34;;;;;;;16.10;15.40;;;22.60;53.30;;;;;;5029749;28;21059;-67
2023/12/28 00:19:02;;;;;;;16.20;15.50;;;22.60;53.40;;;;;;5028737;28;20445;-68
2023/12/28 00:21:30;;;;;;;17.37;16.67;;;22.60;53.50;;;;;;5029663;28;20510;-68
2023/12/28 00:23:57;;;;;;;16.53;15.73;;;22.50;53.40;;;;;;5024960;28;20546;-68
2023/12/28 00:26:24;;;;;;;16.60;15.90;;;22.50;53.50;;;;;;5024840;28;20517;-68
2023/12/28 00:28:51;;;;;;;16.53;15.77;;;22.50;53.50;;;;;;5024732;28;20469;-68
2023/12/28 00:31:18;;;;;;;16.30;15.57;;;22.50;53.40;;;;;;5029490;28;20476;-68
2023/12/28 00:33:44;;;;;;;15.77;15.17;;;22.40;53.40;;;;;;5024024;28;20443;-68
2023/12/28 00:36:11;;;;;;;16.63;16.03;;;22.40;53.40;;;;;;5030291;28;20848;-67
2023/12/28 00:38:39;;;;;;;16.13;15.63;;;22.40;53.50;;;;;;5030446;28;20468;-67
2023/12/28 00:41:06;;;;;;;15.03;14.53;;;22.40;53.50;;;;;;5029648;28;20473;-67
2023/12/28 00:43:33;;;;;;;15.20;14.67;;;22.40;53.60;;;;;;5029494;28;20473;-67
2023/12/28 00:46:00;;;;;;;15.97;15.37;;;22.30;53.60;;;;;;5034320;28;20564;-67
2023/12/28 00:48:27;;;;;;;16.47;15.77;;;22.30;53.70;;;;;;5025344;28;20536;-67
2023/12/28 00:50:55;;;;;;;16.53;15.93;;;22.30;53.70;;;;;;5032753;28;20488;-67
2023/12/28 00:53:22;;;;;;;15.97;15.37;;;22.30;53.70;;;;;;5034136;28;20441;-67
2023/12/28 00:55:50;;;;;;;16.07;15.47;;;22.30;53.90;;;;;;5027357;28;20487;-67
2023/12/28 00:58:17;;;;;;;15.63;15.03;;;22.20;53.80;;;;;;5034730;28;20972;-67
2023/12/28 01:00:44;;;;;;;15.57;14.97;;;22.20;53.80;;;;;;5023084;28;20481;-67
2023/12/28 01:03:11;;;;;;;14.53;14.13;;;22.20;53.80;;;;;;5027557;28;20495;-67
2023/12/28 01:05:38;;;;;;;15.60;15.10;;;22.20;53.90;;;;;;5033900;28;20611;-68
2023/12/28 01:08:05;;;;;;;16.30;15.67;;;22.10;53.90;;;;;;5028961;28;20979;-67
2023/12/28 01:10:32;;;;;;;15.90;15.40;;;22.10;54.00;;;;;;5026212;28;20470;-67
2023/12/28 01:13:00;;;;;;;16.97;16.37;;;22.10;54.00;;;;;;5028720;28;20445;-67
2023/12/28 01:15:27;;;;;;;15.33;14.83;;;22.10;54.00;;;;;;5034051;28;20511;-67
2023/12/28 01:17:54;;;;;;;14.83;14.43;;;22.10;54.00;;;;;;5033645;28;21010;-67
2023/12/28 01:20:21;;;;;;;16.77;16.07;;;22.10;54.00;;;;;;5025952;28;20881;-67
2023/12/28 01:22:49;;;;;;;16.50;16.00;;;22.10;54.10;;;;;;5026171;28;20473;-67
2023/12/28 01:25:16;;;;;;;16.23;15.70;;;22.00;54.00;;;;;;5025937;28;20572;-67
2023/12/28 01:27:43;;;;;;;15.60;15.10;;;22.10;54.20;;;;;;5030774;28;20477;-67
2023/12/28 01:30:11;;;;;;;17.10;16.30;;;22.00;54.10;;;;;;5030214;28;20481;-67
2023/12/28 01:32:38;;;;;;;15.47;14.97;;;22.00;54.20;;;;;;5030761;28;20453;-67
2023/12/28 01:35:06;;;;;;;15.90;15.40;;;22.00;54.20;;;;;;5028263;28;20496;-67
2023/12/28 01:37:33;;;;;;;16.50;15.90;;;22.00;54.20;;;;;;5025738;28;20446;-67
2023/12/28 01:40:00;;;;;;;17.10;16.50;;;21.90;54.20;;;;;;5025739;28;20967;-67
2023/12/28 01:42:29;;;;;;;16.43;15.87;;;21.90;54.20;;;;;;5032322;28;20477;-68
2023/12/28 01:44:57;;;;;;;15.70;15.20;;;21.90;54.30;;;;;;5028185;28;20480;-67
2023/12/28 01:47:26;;;;;;;17.17;16.57;;;22.00;54.90;;;;;;5032823;28;20477;-68
2023/12/28 01:49:54;;;;;;;16.83;16.23;;;21.90;54.30;;;;;;5023708;28;20465;-67
2023/12/28 01:52:21;;;;;;;15.30;14.80;;;21.90;54.90;;;;;;5032290;28;20483;-68
2023/12/28 01:54:49;;;;;;;16.17;15.50;;;21.90;54.40;;;;;;5024967;28;20489;-67
2023/12/28 01:57:17;;;;;;;15.77;15.27;;;21.90;54.40;;;;;;5032585;28;20872;-67
2023/12/28 01:59:45;;;;;;;14.87;14.47;;;21.80;54.50;;;;;;5025323;28;20464;-67
2023/12/28 02:02:12;;;;;;;15.87;15.37;;;21.80;54.50;;;;;;5027191;28;20473;-67
2023/12/28 02:04:41;;;;;;;15.40;14.87;;;21.90;55.10;;;;;;5029846;28;21198;-67
2023/12/28 02:07:09;;;;;;;15.60;15.17;;;21.80;54.50;;;;;;5027581;28;20516;-67
2023/12/28 02:09:36;;;;;;;15.70;15.20;;;21.80;54.50;;;;;;5032744;28;20480;-67
2023/12/28 02:12:03;;;;;;;16.07;15.47;;;21.80;54.60;;;;;;5032920;28;20477;-67
2023/12/28 02:14:30;;;;;;;15.13;14.53;;;21.80;54.60;;;;;;5025224;28;20498;-67
2023/12/28 02:17:04;;;;;;;15.10;14.70;;;21.80;54.70;;;;;;5031002;28;20564;-68
2023/12/28 02:19:44;;;;;;;15.10;14.60;;;21.80;54.60;;;;;;5025071;28;20480;-67
2023/12/28 02:22:14;;;;;;;14.80;14.40;;;21.80;54.60;;;;;;5026148;28;20469;-67
2023/12/28 02:25:08;;;;;;;15.13;14.63;;;21.80;54.70;;;;;;5024815;28;23046;-67
2023/12/28 02:27:37;;;;;;;15.30;14.90;;;21.80;54.70;;;;;;5024783;28;20484;-67
2023/12/28 02:30:06;;;;;;;15.73;15.20;;;21.80;54.80;;;;;;5025071;28;20484;-67
2023/12/28 02:32:48;;;;;;;15.50;15.00;;;21.70;54.70;;;;;;5025035;28;20480;-67
2023/12/28 02:35:20;;;;;;;14.90;14.50;;;21.70;54.70;;;;;;5032240;28;20924;-67
2023/12/28 02:37:52;;;;;;;15.17;14.67;;;21.70;54.80;;;;;;5025237;28;20465;-68
2023/12/28 02:40:22;;;;;;;16.13;15.57;;;21.70;54.80;;;;;;5020361;28;20438;-67
2023/12/28 02:42:49;;;;;;;15.20;14.80;;;21.70;54.80;;;;;;5025111;28;20480;-67
2023/12/28 02:45:15;;;;;;;15.67;15.17;;;21.70;54.80;;;;;;5023606;28;20508;-67
2023/12/28 02:47:44;;;;;;;15.23;14.83;;;21.70;54.80;;;;;;5032087;28;20473;-67
2023/12/28 02:50:10;;;;;;;15.40;14.70;;;21.70;54.90;;;;;;5032118;28;20937;-67
2023/12/28 02:52:37;;;;;;;14.57;14.17;;;21.70;54.90;;;;;;5026952;28;20473;-67
2023/12/28 02:55:05;;;;;;;14.33;13.93;;;21.70;55.40;;;;;;5026917;28;20493;-67
2023/12/28 02:57:37;;;;;;;15.70;15.10;;;21.70;54.90;;;;;;5022117;28;20474;-67
2023/12/28 03:00:06;;;;;;;16.23;15.30;;;21.70;55.00;;;;;;5023917;28;20499;-67
2023/12/28 03:02:32;;;;;;;15.30;14.80;;;21.70;55.60;;;;;;5029782;28;20484;-67
2023/12/28 03:05:00;;;;;;;15.63;15.13;;;21.60;54.90;;;;;;5027337;28;20470;-67
2023/12/28 03:07:27;;;;;;;15.60;15.20;;;21.60;55.00;;;;;;5021215;28;20509;-67
2023/12/28 03:09:53;;;;;;;15.63;15.20;;;21.60;54.90;;;;;;5024236;28;20480;-67
2023/12/28 03:12:21;;;;;;;14.90;14.50;;;21.60;54.90;;;;;;5031951;28;20567;-67
2023/12/28 03:14:49;;;;;;;15.33;14.83;;;21.60;54.90;;;;;;5020655;28;20508;-67
2023/12/28 03:17:16;;;;;;;15.90;15.40;;;21.60;54.90;;;;;;5023146;28;20477;-68
2023/12/28 03:19:43;;;;;;;15.03;14.63;;;21.60;55.00;;;;;;5029438;28;20484;-67
2023/12/28 03:22:09;;;;;;;14.80;14.40;;;21.60;55.00;;;;;;5029033;28;21011;-67
2023/12/28 03:24:37;;;;;;;15.97;15.37;;;21.60;55.10;;;;;;5020418;28;20496;-67
2023/12/28 03:27:05;;;;;;;16.00;15.50;;;21.60;55.10;;;;;;5029797;28;20520;-68
2023/12/28 03:29:32;;;;;;;16.30;15.80;;;21.60;55.10;;;;;;5031765;28;20441;-68
2023/12/28 03:32:00;;;;;;;16.70;16.20;;;21.50;55.00;;;;;;5023661;28;20500;-67
2023/12/28 03:34:29;;;;;;;17.20;16.50;;;21.50;55.00;;;;;;5031371;28;20601;-68
2023/12/28 03:36:56;;;;;;;17.10;16.40;;;21.60;55.20;;;;;;5020337;28;20438;-67
2023/12/28 03:39:23;;;;;;;15.80;15.40;;;21.50;55.10;;;;;;5020260;28;20450;-67
2023/12/28 03:41:52;;;;;;;16.30;15.70;;;21.50;55.10;;;;;;5023709;28;20448;-67
2023/12/28 03:44:19;;;;;;;15.40;14.90;;;21.50;55.10;;;;;;5023459;28;20560;-67
2023/12/28 03:46:47;;;;;;;15.90;15.50;;;21.50;55.10;;;;;;5028663;28;20477;-67
2023/12/28 03:49:16;;;;;;;16.50;16.00;;;21.50;55.10;;;;;;5020038;28;20472;-67
2023/12/28 03:51:43;;;;;;;15.73;15.33;;;21.50;55.10;;;;;;5022525;28;20474;-67
2023/12/28 03:54:10;;;;;;;15.03;14.63;;;21.50;55.10;;;;;;5023329;28;20501;-67
2023/12/28 03:56:39;;;;;;;16.00;15.60;;;21.50;55.70;;;;;;5021720;28;20491;-67
2023/12/28 03:59:07;;;;;;;15.77;15.37;;;21.50;55.20;;;;;;5019957;28;20450;-68
2023/12/28 04:01:34;;;;;;;14.90;14.50;;;21.50;55.20;;;;;;5020813;28;20473;-67
2023/12/28 04:04:00;;;;;;;16.90;16.30;;;21.50;55.20;;;;;;5023358;28;20496;-67
2023/12/28 04:06:29;;;;;;;16.47;15.97;;;21.50;55.30;;;;;;5022824;28;20512;-67
2023/12/28 04:08:57;;;;;;;16.73;16.23;;;21.50;55.20;;;;;;5019755;28;20478;-67
2023/12/28 04:11:23;;;;;;;15.70;15.30;;;21.50;55.30;;;;;;5019868;28;20469;-67
2023/12/28 04:13:51;;;;;;;16.70;16.20;;;21.50;55.30;;;;;;5023019;28;20492;-68
2023/12/28 04:16:18;;;;;;;15.80;15.40;;;21.50;55.30;;;;;;5023163;28;20591;-67
2023/12/28 04:18:45;;;;;;;16.07;15.67;;;21.50;55.40;;;;;;5024260;28;20479;-67
2023/12/28 04:21:13;;;;;;;15.70;15.20;;;21.50;55.40;;;;;;5027158;28;20476;-67
2023/12/28 04:23:42;;;;;;;15.90;15.40;;;21.50;55.40;;;;;;5033409;28;20469;-67
2023/12/28 04:26:09;;;;;;;16.03;15.43;;;21.50;55.40;;;;;;5023651;28;20528;-67
2023/12/28 04:28:36;;;;;;;15.60;15.20;;;21.50;55.50;;;;;;5024877;28;20862;-67
2023/12/28 04:31:04;;;;;;;16.27;15.77;;;21.50;55.50;;;;;;5027003;28;20473;-67
2023/12/28 04:33:32;;;;;;;16.00;15.50;;;21.50;55.50;;;;;;5026281;28;20975;-67
2023/12/28 04:36:01;;;;;;;15.60;15.20;;;21.50;55.50;;;;;;5023545;28;20814;-67
2023/12/28 04:38:28;;;;;;;16.00;15.60;;;21.50;55.50;;;;;;5023616;28;20484;-67
2023/12/28 04:40:56;;;;;;;16.17;15.67;;;21.50;55.50;;;;;;5026926;28;20472;-67
2023/12/28 04:43:24;;;;;;;15.80;15.30;;;21.50;55.50;;;;;;5026946;28;20445;-67
2023/12/28 04:45:51;;;;;;;15.47;15.07;;;21.50;55.50;;;;;;5023166;28;20465;-67
2023/12/28 04:48:20;;;;;;;15.67;15.27;;;21.40;55.60;;;;;;5023328;28;20488;-67
2023/12/28 04:50:48;;;;;;;15.93;15.43;;;21.40;55.60;;;;;;5025893;28;20583;-67
2023/12/28 04:53:15;;;;;;;15.00;14.60;;;21.40;55.60;;;;;;5026777;28;20449;-67
2023/12/28 04:55:42;;;;;;;14.90;14.50;;;21.40;55.60;;;;;;5026082;28;20519;-67
2023/12/28 04:58:12;;;;;;;15.70;15.30;;;21.50;55.60;;;;;;5034834;28;20476;-67
2023/12/28 05:00:38;;;;;;;15.40;15.00;;;21.50;55.50;;;;;;5025008;28;20437;-67
2023/12/28 05:03:06;;;;;;;17.80;17.30;;;21.40;55.50;;;;;;5023038;28;20518;-68
2023/12/28 05:05:33;;;;;;;16.80;16.30;;;21.40;55.50;;;;;;5023525;28;20473;-68
2023/12/28 05:08:00;;;;;;;17.83;17.33;;;21.50;56.10;;;;;;5026463;28;20484;-67
2023/12/28 05:10:27;;;;;;;15.77;15.30;;;21.40;55.50;;;;;;5026399;28;20469;-67
2023/12/28 05:12:54;;;;;;;18.90;18.30;;;21.50;55.50;;;;;;5026374;28;20485;-67
2023/12/28 05:15:22;;;;;;;16.60;16.10;;;21.50;55.50;;;;;;5026082;28;20492;-68
2023/12/28 05:17:50;;;;;;;17.30;16.80;;;21.40;55.50;;;;;;5023245;28;20500;-67
2023/12/28 05:20:17;;;;;;;17.67;17.07;;;21.40;55.50;;;;;;5022814;28;20458;-67
2023/12/28 05:22:44;;;;;;;17.40;16.90;;;21.40;55.60;;;;;;5030812;28;20441;-67
2023/12/28 05:25:12;;;;;;;17.23;16.73;;;21.50;55.70;;;;;;5022752;28;20493;-68
2023/12/28 05:27:39;;;;;;;17.50;17.00;;;21.50;55.70;;;;;;5023715;28;20536;-67
2023/12/28 05:30:08;;;;;;;17.40;16.90;;;21.40;56.10;;;;;;5024862;28;20834;-68
2023/12/28 05:32:36;;;;;;;17.50;17.00;;;21.40;55.60;;;;;;5025291;28;20484;-67
2023/12/28 05:35:03;;;;;;;17.67;17.17;;;21.40;55.60;;;;;;5022417;28;20462;-67
2023/12/28 05:37:30;;;;;;;17.60;17.10;;;21.40;55.60;;;;;;5022625;28;20438;-67
2023/12/28 05:39:57;;;;;;;19.90;19.30;;;21.40;55.60;;;;;;5025737;28;20445;-67
2023/12/28 05:42:24;;;;;;;18.90;18.30;;;21.40;55.60;;;;;;5025575;28;20449;-67
2023/12/28 05:44:51;;;;;;;18.40;17.90;;;21.40;55.60;;;;;;5022459;28;20981;-67
2023/12/28 05:47:18;;;;;;;19.60;19.00;;;21.40;55.70;;;;;;5022168;28;20945;-67
2023/12/28 05:49:46;;;;;;;18.40;17.80;;;21.40;55.70;;;;;;5024206;28;20481;-67
2023/12/28 05:52:14;;;;;;;19.47;18.87;;;21.40;55.70;;;;;;5025402;28;20480;-67
2023/12/28 05:54:42;;;;;;;19.10;18.60;;;21.40;55.70;;;;;;5023709;28;20465;-67
2023/12/28 05:57:09;;;;;;;19.90;19.30;;;21.40;55.70;;;;;;5022077;28;20450;-67
2023/12/28 05:59:39;;;;;;;20.60;20.00;;;21.40;55.70;;;;;;5022743;28;20446;-67
2023/12/28 06:02:06;;;;;;;20.63;20.03;;;21.40;55.70;;;;;;5025330;28;20445;-67
2023/12/28 06:04:35;;;;;;;20.73;20.13;;;21.40;55.70;;;;;;5024928;28;20488;-67
2023/12/28 06:07:03;;;;;;;20.27;19.67;;;21.40;55.70;;;;;;5021979;28;20485;-67
2023/12/28 06:09:30;;;;;;;21.30;20.60;;;21.40;55.70;;;;;;5022047;28;20457;-68
2023/12/28 06:11:57;;;;;;;17.87;17.37;;;21.40;55.70;;;;;;5025354;28;20472;-67
2023/12/28 06:14:24;;;;;;;17.97;17.47;;;21.40;55.70;;;;;;5025185;28;21039;-67
2023/12/28 06:16:51;;;;;;;18.30;17.80;;;21.40;55.70;;;;;;5022525;28;21108;-67
2023/12/28 06:19:18;;;;;;;18.10;17.60;;;21.40;55.70;;;;;;5021810;28;21083;-67
2023/12/28 06:21:45;;;;;;;17.03;16.53;;;21.40;55.70;;;;;;5029570;28;20493;-67
2023/12/28 06:24:13;;;;;;;18.67;18.07;;;21.40;55.70;;;;;;5027673;28;20965;-68
2023/12/28 06:26:41;;;;;;;17.17;16.67;;;21.40;55.70;;;;;;5022677;28;20510;-67
2023/12/28 06:29:08;;;;;;;17.30;16.80;;;21.40;55.80;;;;;;5025094;28;20449;-67
2023/12/28 06:31:36;;;;;;;17.20;16.70;;;21.30;55.70;;;;;;5024149;28;20440;-67
2023/12/28 06:34:03;;;;;;;17.83;17.33;;;21.40;55.80;;;;;;5021303;28;20472;-67
2023/12/28 06:36:31;;;;;;;18.40;17.80;;;21.40;55.70;;;;;;5021601;28;20434;-67
2023/12/28 06:38:57;;;;;;;18.00;17.50;;;21.40;55.70;;;;;;5024769;28;20445;-67
2023/12/28 06:41:26;;;;;;;19.03;18.43;;;21.40;55.70;;;;;;5024243;28;20833;-67
2023/12/28 06:43:53;;;;;;;18.50;18.00;;;21.40;55.90;;;;;;5021398;28;20493;-67
2023/12/28 06:46:20;;;;;;;17.00;16.50;;;21.40;55.80;;;;;;5021038;28;20481;-67
2023/12/28 06:48:47;;;;;;;16.40;15.90;;;21.40;55.80;;;;;;5023083;28;20471;-67
2023/12/28 06:51:19;;;;;;;17.07;16.57;;;21.40;55.80;;;;;;5024492;28;20480;-67
2023/12/28 06:53:46;;;;;;;16.77;16.27;;;21.30;55.70;;;;;;5022433;28;20476;-67
2023/12/28 06:56:13;;;;;;;17.27;16.77;;;21.40;55.80;;;;;;5021231;28;20504;-67
2023/12/28 06:58:41;;;;;;;17.40;16.90;;;21.40;55.80;;;;;;5021797;28;20446;-67
2023/12/28 07:01:08;;;;;;;17.77;17.27;;;21.30;55.80;;;;;;5024193;28;20499;-67
2023/12/28 07:03:35;;;;;;;18.00;17.47;;;21.40;55.90;;;;;;5023898;28;20480;-67
2023/12/28 07:06:03;;;;;;;18.00;17.50;;;21.30;55.90;;;;;;5021077;28;20481;-67
2023/12/28 07:08:30;;;;;;;17.23;16.70;;;21.30;55.80;;;;;;5020621;28;20484;-67
2023/12/28 07:10:57;;;;;;;17.50;17.00;;;21.40;55.90;;;;;;5023769;28;20471;-67
2023/12/28 07:13:24;;;;;;;17.90;17.40;;;21.40;55.90;;;;;;5024078;28;20875;-67
2023/12/28 07:15:53;;;;;;;17.60;17.10;;;21.30;55.80;;;;;;5021623;28;20465;-67
2023/12/28 07:18:20;;;;;;;17.00;16.50;;;21.40;55.80;;;;;;5020588;28;20446;-68
2023/12/28 07:20:47;;;;;;;17.00;16.50;;;21.40;55.80;;;;;;5022216;28;20474;-67
2023/12/28 07:23:14;;;;;;;19.87;19.27;;;21.40;55.80;;;;;;5032161;28;20452;-67
2023/12/28 07:25:41;;;;;;;18.83;18.23;;;21.40;56.30;;;;;;5022728;28;20552;-67
2023/12/28 07:28:07;;;;;;;18.60;18.00;;;21.40;55.80;;;;;;5020464;28;21066;-63
2023/12/28 07:30:34;;;;;;;17.37;16.87;;;21.40;55.90;;;;;;5020278;28;20517;-67
2023/12/28 07:33:03;;;;;;;17.20;16.70;;;21.40;56.00;;;;;;5023631;28;20472;-64
2023/12/28 07:35:29;;;;;;;17.17;16.57;;;21.50;56.40;;;;;;5023698;28;20495;-68
2023/12/28 07:37:56;;;;;;;17.23;16.63;;;21.50;56.60;;;;;;5020293;28;20465;-70
2023/12/28 07:40:23;;;;;;;16.90;16.43;;;21.50;56.70;;;;;;5020229;28;20470;-67
2023/12/28 07:42:50;;;;;;;17.57;16.77;;;21.60;57.00;;;;;;5022290;28;20473;-66
2023/12/28 07:45:22;;;;;;;17.63;17.13;;;21.60;56.70;;;;;;5023134;28;20988;-66
2023/12/28 07:47:50;;;;;;;16.73;16.23;;;21.70;57.10;;;;;;5021360;28;20481;-66
2023/12/28 07:50:25;;;;;;;18.40;17.77;;;21.70;56.70;;;;;;5019989;28;20446;-65
2023/12/28 07:52:58;;;;;;;19.33;18.73;;;21.80;56.40;;;;;;5021806;28;20441;-66
2023/12/28 07:55:27;;;;;;;19.00;18.50;;;21.80;56.40;;;;;;5023348;28;20469;-66
2023/12/28 07:57:58;;;;;;;18.07;17.50;;;21.90;56.60;;;;;;5020703;28;21117;-65
2023/12/28 08:00:26;;;;;;;19.33;18.73;;;21.90;56.10;;;;;;5018617;28;20450;-67
2023/12/28 08:03:01;;;;;;;20.60;19.70;;;21.90;55.90;;;;;;5028116;28;20811;-69
2023/12/28 08:05:29;;;;;;;18.20;17.70;;;21.90;56.00;;;;;;5019928;28;20461;-67
2023/12/28 08:07:56;;;;;;;18.40;17.80;;;22.00;56.10;;;;;;5022566;28;20563;-71
2023/12/28 08:10:24;;;;;;;20.53;19.80;;;22.00;55.80;;;;;;5023594;28;20465;-69
2023/12/28 08:12:53;;;;;;;18.80;18.20;;;22.00;55.50;;;;;;5019836;23;20523;-65
2023/12/28 08:15:22;;;;;;;18.33;17.80;;;22.10;56.10;;;;;;4979827;28;20502;-64
2023/12/28 08:17:51;;;;;;;19.60;19.00;;;22.10;55.30;;;;;;4974093;28;20449;-67
2023/12/28 08:20:20;;;;;;;20.67;19.77;;;22.10;55.10;;;;;;4972778;28;20444;-64
2023/12/28 08:22:53;;;;;;;18.30;17.60;;;22.10;55.20;;;;;;4971178;28;20438;-64
2023/12/28 08:25:22;;;;;;;21.50;20.80;;;22.10;55.30;;;;;;4972319;28;20482;-67
2023/12/28 08:27:49;;;;;;;20.70;20.00;;;22.20;55.20;;;;;;4970550;28;20489;-67
2023/12/28 08:30:17;;;;;;;20.50;19.70;;;22.30;55.10;;;;;;4972695;28;20472;-68
2023/12/28 08:32:44;;;;;;;21.90;21.10;;;22.30;54.90;;;;;;4972225;28;20498;-70
2023/12/28 08:35:12;;;;;;;21.00;20.10;;;22.30;54.80;;;;;;4972455;28;20907;-69
2023/12/28 08:37:43;;;;;;;21.27;20.37;;;22.30;54.80;;;;;;4972366;28;20476;-68
2023/12/28 08:40:15;;;;;;;21.93;20.93;;;22.30;54.80;;;;;;4971271;28;20811;-69
2023/12/28 08:42:45;;;;;;;22.90;21.40;;;22.30;54.80;;;;;;4970997;28;20469;-69
2023/12/28 08:45:13;;;;;;;25.43;23.87;;;22.20;54.70;;;;;;4972306;28;20211;-66
2023/12/28 08:47:44;;;;;;;24.77;23.40;;;22.30;54.70;;;;;;4972368;28;20480;-68
2023/12/28 08:50:12;;;;;;;25.10;23.20;;;22.40;55.10;;;;;;4972361;28;20487;-67
2023/12/28 08:52:39;;;;;;;25.05;23.13;;;22.50;54.60;;;;;;4972032;28;20477;-66
2023/12/28 08:55:19;;;;;;;23.83;22.27;;;22.40;54.40;;;;;;4972338;28;20263;-64
2023/12/28 08:57:47;;;;;;;23.10;21.67;;;22.40;54.50;;;;;;4972181;28;20440;-70
2023/12/28 09:00:22;;;;;;;24.20;22.33;;;22.40;54.40;;;;;;4972221;28;20815;-67
2023/12/28 09:02:51;;;;;;;25.07;23.50;;;22.40;54.70;;;;;;4972328;28;20467;-68
2023/12/28 09:05:18;;;;;;;24.00;22.80;;;22.40;54.70;;;;;;4974793;28;20535;-66
2023/12/28 09:07:45;;;;;;;21.77;20.27;;;22.40;54.60;;;;;;4975077;28;20482;-64
2023/12/28 09:10:17;;;;;;;19.70;18.60;;;22.40;54.50;;;;;;4979848;28;20476;-65
2023/12/28 09:12:44;;;;;;;24.13;22.80;;;22.50;54.40;;;;;;4975533;28;20246;-65
2023/12/28 09:15:12;;;;;;;24.63;23.33;;;22.50;54.10;;;;;;4975566;28;20475;-66
2023/12/28 09:17:40;;;;;;;25.80;24.10;;;22.60;54.20;;;;;;4975541;28;20926;-69
2023/12/28 09:20:08;;;;;;;25.27;23.90;;;22.60;54.10;;;;;;4975620;28;20475;-67
2023/12/28 09:22:35;;;;;;;24.17;23.17;;;22.60;54.20;;;;;;4975573;28;20468;-67
2023/12/28 09:25:02;;;;;;;25.27;24.07;;;22.60;54.10;;;;;;4975224;28;20467;-69
2023/12/28 09:27:30;;;;;;;24.40;23.30;;;22.60;54.20;;;;;;4975428;28;20511;-69
2023/12/28 09:29:57;;;;;;;23.30;22.03;;;22.60;54.10;;;;;;4975535;28;20480;-67
2023/12/28 09:32:24;;;;;;;22.60;21.60;;;22.50;54.00;;;;;;4975215;28;20502;-68
2023/12/28 09:34:51;;;;;;;24.53;23.40;;;22.40;54.10;;;;;;4975360;28;20955;-67
2023/12/28 09:37:18;;;;;;;24.50;23.50;;;22.30;54.20;;;;;;4975223;28;20948;-68
2023/12/28 09:39:45;;;;;;;23.00;21.93;;;22.40;54.60;;;;;;4975279;28;20468;-68
2023/12/28 09:42:23;;;;;;;24.43;23.23;;;22.50;54.30;;;;;;4975187;28;20866;-69
2023/12/28 09:44:52;;;;;;;22.20;21.30;;;22.40;54.10;;;;;;4975113;28;20498;-68
2023/12/28 09:47:19;;;;;;;22.00;21.13;;;22.40;54.20;;;;;;4975015;28;20503;-70
2023/12/28 09:49:47;;;;;;;23.90;22.90;;;22.50;54.30;;;;;;4975089;28;20459;-68
2023/12/28 09:52:14;;;;;;;22.67;21.77;;;22.50;54.10;;;;;;4974982;28;21026;-70
2023/12/28 09:54:41;;;;;;;22.83;21.73;;;22.60;54.10;;;;;;4975067;28;20490;-72
2023/12/28 09:57:09;;;;;;;22.67;21.50;;;22.60;54.10;;;;;;4974946;28;20935;-70
2023/12/28 09:59:36;;;;;;;21.43;20.33;;;22.60;54.70;;;;;;4975389;28;20933;-70
2023/12/28 10:02:05;;;;;;;21.37;20.30;;;22.60;54.20;;;;;;4974613;28;20444;-69
2023/12/28 10:04:32;;;;;;;19.97;19.27;;;22.60;54.00;;;;;;4974860;28;20468;-70
2023/12/28 10:07:00;;;;;;;22.00;21.20;;;22.70;53.90;;;;;;4974770;28;20484;-69
2023/12/28 10:09:27;;;;;;;22.63;21.60;;;22.70;53.80;;;;;;4974671;28;21018;-73
2023/12/28 10:11:55;;;;;;;21.10;20.30;;;22.70;53.60;;;;;;4974563;28;20458;-70
2023/12/28 10:14:22;;;;;;;21.50;20.60;;;22.70;53.80;;;;;;4974076;28;20471;-70
2023/12/28 10:16:48;;;;;;;21.13;20.20;;;22.70;53.90;;;;;;4975349;28;20847;-69
2023/12/28 10:19:22;;;;;;;20.93;20.23;;;22.70;53.70;;;;;;4981242;28;20923;-67
2023/12/28 10:21:49;;;;;;;20.77;19.83;;;22.70;53.40;;;;;;4974336;28;20475;-67
2023/12/28 10:24:16;;;;;;;21.50;20.70;;;22.70;52.60;;;;;;4974348;28;20886;-70
2023/12/28 10:26:43;;;;;;;20.30;19.10;;;22.60;53.20;;;;;;4974663;28;20475;-70
2023/12/28 10:29:10;;;;;;;21.03;20.23;;;22.70;53.10;;;;;;4974410;28;20898;-71
2023/12/28 10:31:39;;;;;;;22.47;21.57;;;22.70;53.20;;;;;;4981026;28;20501;-70
2023/12/28 10:34:05;;;;;;;21.53;20.73;;;22.80;53.30;;;;;;4974381;28;20937;-71
2023/12/28 10:36:36;;;;;;;20.80;19.90;;;22.80;53.10;;;;;;4974400;28;20472;-70
2023/12/28 10:39:05;;;;;;;20.13;19.33;;;22.80;53.10;;;;;;4974334;28;20444;-69
2023/12/28 10:41:35;;;;;;;20.63;19.60;;;22.80;53.10;;;;;;4976730;28;20479;-69
2023/12/28 10:44:04;;;;;;;20.43;19.73;;;22.80;53.10;;;;;;4974064;28;20519;-67
2023/12/28 10:46:36;;;;;;;20.40;19.80;;;22.80;52.90;;;;;;4978076;28;20472;-72
2023/12/28 10:49:10;;;;;;;21.30;20.50;;;22.80;53.20;;;;;;4973723;28;20522;-73
2023/12/28 10:51:43;;;;;;;21.40;20.50;;;22.80;53.10;;;;;;4974360;28;20942;-71
2023/12/28 10:54:24;;;;;;;21.63;20.73;;;22.70;53.10;;;;;;4966138;28;20473;-71
2023/12/28 10:57:00;;;;;;;20.33;19.53;;;22.70;53.40;;;;;;4971597;28;20478;-71
2023/12/28 10:59:36;;;;;;;21.67;20.67;;;22.70;53.20;;;;;;4977464;28;20470;-70
2023/12/28 11:02:06;;;;;;;20.17;19.47;;;22.80;52.80;;;;;;4979802;28;20527;-71
2023/12/28 11:04:41;;;;;;;19.60;18.90;;;22.80;53.00;;;;;;4973998;28;20535;-71
2023/12/28 11:07:11;;;;;;;21.13;20.43;;;22.80;52.90;;;;;;4973593;28;20443;-70
2023/12/28 11:09:39;;;;;;;19.97;19.27;;;22.80;53.00;;;;;;4973823;28;20483;-71
2023/12/28 11:12:10;;;;;;;20.33;19.30;;;22.70;52.90;;;;;;4980957;28;21022;-71
2023/12/28 11:14:39;;;;;;;19.50;18.80;;;22.70;53.10;;;;;;4973624;28;20473;-71
2023/12/28 11:17:06;;;;;;;20.43;19.73;;;22.80;53.10;;;;;;4973324;28;20463;-72
2023/12/28 11:19:35;;;;;;;21.03;20.27;;;22.70;53.20;;;;;;4973350;28;20479;-72
2023/12/28 11:22:04;;;;;;;21.03;20.23;;;22.70;53.10;;;;;;4978663;28;20494;-67
2023/12/28 11:24:33;;;;;;;21.03;20.23;;;22.80;53.10;;;;;;4973243;28;20472;-68
2023/12/28 11:27:00;;;;;;;21.20;20.40;;;22.80;52.90;;;;;;4972276;28;20542;-68
2023/12/28 11:29:30;;;;;;;22.17;21.40;;;22.80;52.80;;;;;;4973374;28;21041;-69
2023/12/28 11:31:58;;;;;;;21.43;20.73;;;22.80;53.00;;;;;;4973895;28;20892;-68
2023/12/28 11:34:29;;;;;;;21.03;20.33;;;22.80;52.70;;;;;;4973112;28;20468;-68
2023/12/28 11:36:57;;;;;;;22.10;21.30;;;22.70;52.60;;;;;;4973127;28;20502;-67
2023/12/28 11:39:33;;;;;;;21.03;20.30;;;22.70;53.00;;;;;;4973215;28;20475;-67
2023/12/28 11:42:02;;;;;;;21.47;20.67;;;22.70;53.80;;;;;;4977285;28;20451;-70
2023/12/28 11:44:29;;;;;;;22.30;21.50;;;22.60;53.50;;;;;;4973001;28;20456;-71
2023/12/28 11:46:57;;;;;;;22.50;20.97;;;22.70;53.80;;;;;;4972884;28;20503;-68
2023/12/28 11:49:29;;;;;;;20.33;19.70;;;22.80;53.60;;;;;;4973142;28;20482;-68
2023/12/28 11:51:58;;;;;;;21.37;20.57;;;22.80;53.20;;;;;;4972866;28;20510;-69
2023/12/28 11:54:26;;;;;;;21.67;20.70;;;22.90;53.00;;;;;;4972689;28;20467;-70
2023/12/28 11:56:54;;;;;;;21.20;20.40;;;22.90;53.00;;;;;;4972949;28;20451;-70
2023/12/28 11:59:21;;;;;;;20.63;19.83;;;22.90;52.80;;;;;;4974177;28;20854;-68
2023/12/28 12:01:51;;;;;;;20.27;19.50;;;22.90;53.50;;;;;;4972610;28;20479;-67
2023/12/28 12:04:18;;;;;;;19.70;19.00;;;22.90;53.40;;;;;;4972594;28;20495;-66
2023/12/28 12:06:46;;;;;;;19.90;19.30;;;22.90;53.20;;;;;;4973050;28;20472;-66
2023/12/28 12:09:13;;;;;;;20.60;19.63;;;22.90;53.00;;;;;;4965083;28;20486;-66
2023/12/28 12:11:40;;;;;;;20.00;19.30;;;22.90;53.50;;;;;;4972724;28;20848;-67
2023/12/28 12:14:10;;;;;;;20.30;19.57;;;22.90;53.00;;;;;;4972442;28;20467;-67
2023/12/28 12:16:38;;;;;;;21.03;19.93;;;22.90;53.00;;;;;;4978784;28;20463;-67
2023/12/28 12:19:06;;;;;;;20.30;19.70;;;22.90;52.90;;;;;;4973616;28;20467;-67
2023/12/28 12:21:34;;;;;;;21.47;20.57;;;22.90;52.90;;;;;;4972652;28;20452;-66
2023/12/28 12:24:01;;;;;;;21.20;20.40;;;22.90;52.80;;;;;;4972499;28;20892;-67
2023/12/28 12:26:31;;;;;;;20.93;20.23;;;22.90;52.70;;;;;;4976304;28;20861;-71
2023/12/28 12:28:58;;;;;;;21.00;20.20;;;22.90;53.20;;;;;;4974364;28;20476;-68
2023/12/28 12:31:27;;;;;;;20.80;20.00;;;22.90;52.80;;;;;;4972644;28;20444;-68
2023/12/28 12:33:54;;;;;;;21.47;20.67;;;22.90;52.60;;;;;;4972386;28;20482;-70